Pagina principale
METAR-TAF:

METAR-TAF

Aeroporti :

San Gallo, Svizzera

latitudine: 47-29-06N, longitudine: 009-33-43E, altezza: 398 m

Osservazione

Il bollettino è stato emesso 37 minuti fa, alle 01:20 UTC
Vento 2 kt da direzioni variabili
Temperature 19°C
Umidità 100%
Pressione 1015 hPa
Visibilità 10 km o più
nessuna nube inferiore a 1500 m e nessun cumulonembo

METAR: LSZR 210120Z AUTO VRB02KT CAVOK 19/19 Q1015

Ora: 03:57 (01:57 UTC)

Previsione

Il bollettino è stato emesso 11 ore e 32 minuti fa, alle 14:25 UTC
Previsione valida dal 20 alle 15 UTC al 20 alle 24 UTC
Vento 5 kt da ovest/nord-ovest
Visibilità 10 km o più
Poco nuvoloso ad un'altezza di 5000 ft
Probabilità 30% :
Temporaneamente
dal 20 alle 17 UTC al 20 alle 21 UTC
Nubi sparse ad un'altezza di 5000 ft, Cumulo congesto.
rovesci di pioggia,

TAF: LSZR 201425Z 2015/2024 30005KT 9999 FEW050 PROB30 TEMPO 2017/2021 SHRA SCT050TCU

Osservazioni e previsioni meteorologiche di più di 4000 aeroporti (messaggi METAR e TAF).

Le stazioni disponibili sono rappresentate dai dischi gialli e rossi sulla carta.

Puntare il mouse per vedere il nome della stazione.

Clicca sopra per visualizzare le osservazioni e previsioni meteorologiche.

Per cambiare la mappa : fare clic sui pulsanti verdi con una croce nera per ingrandire, il pulsante verde con un trattino per diminuire, o sulla freccia verde per le mappe adiacenti.


METAR-TAF: